createdAt,value
2019-01-09T00:01:30.369Z,97610.02
2019-01-09T00:04:01.015Z,97604.91
2019-01-09T00:06:31.704Z,97611.53
2019-01-09T00:09:02.371Z,97604.56
2019-01-09T00:11:33.020Z,97616.03
2019-01-09T00:14:03.719Z,97615.86
2019-01-09T00:16:34.479Z,97617.81
2019-01-09T00:19:05.097Z,97610.88
2019-01-09T00:21:35.848Z,97618.31
2019-01-09T00:24:06.597Z,97620.77
2019-01-09T00:26:37.277Z,97621.78
2019-01-09T00:29:07.949Z,97630.08
2019-01-09T00:31:38.639Z,97630.97
2019-01-09T00:34:09.186Z,97630.41
2019-01-09T00:36:39.867Z,97631.69
2019-01-09T00:39:10.588Z,97627.53
2019-01-09T00:41:41.130Z,97630.59
2019-01-09T00:44:11.829Z,97635.00
2019-01-09T00:46:42.938Z,97630.30
2019-01-09T00:49:13.538Z,97635.63
2019-01-09T00:51:44.123Z,97636.09
2019-01-09T00:54:15.038Z,97631.11
2019-01-09T00:56:45.658Z,97634.42
2019-01-09T00:59:16.158Z,97635.22
2019-01-09T01:02:01.149Z,97641.51
2019-01-09T01:05:29.121Z,97643.77
2019-01-09T01:08:44.788Z,97642.69
2019-01-09T01:12:12.758Z,97645.23
2019-01-09T01:15:40.698Z,97643.75
2019-01-09T01:18:58.268Z,97652.10
2019-01-09T01:21:39.543Z,97649.05
2019-01-09T01:24:59.013Z,97649.55
2019-01-09T01:28:10.736Z,97648.95
2019-01-09T01:31:31.283Z,97644.25
2019-01-09T01:34:46.801Z,97654.08
2019-01-09T01:38:11.439Z,97648.39
2019-01-09T01:41:29.608Z,97654.48
2019-01-09T01:44:34.618Z,97657.31
2019-01-09T01:47:47.375Z,97659.26
2019-01-09T01:50:54.921Z,97657.80
2019-01-09T01:54:22.808Z,97652.23
2019-01-09T01:57:46.607Z,97660.44
2019-01-09T02:00:31.828Z,97664.87
2019-01-09T02:03:59.839Z,97665.44
2019-01-09T02:07:23.586Z,97666.23
2019-01-09T02:10:51.610Z,97667.00
2019-01-09T02:13:50.618Z,97674.73
2019-01-09T02:17:18.619Z,97673.47
2019-01-09T02:20:17.519Z,97671.11
2019-01-09T02:23:33.608Z,97669.14
2019-01-09T02:26:22.298Z,97674.65
2019-01-09T02:29:32.868Z,97666.59
2019-01-09T02:32:31.068Z,97672.30
2019-01-09T02:35:01.749Z,97670.73
2019-01-09T02:37:32.487Z,97671.91
2019-01-09T02:40:03.148Z,97669.05
2019-01-09T02:42:33.671Z,97668.95
2019-01-09T02:45:04.282Z,97668.47
2019-01-09T02:47:34.888Z,97666.40
2019-01-09T02:50:06.388Z,97665.35
2019-01-09T02:52:36.969Z,97665.12
2019-01-09T02:55:08.862Z,97658.47
2019-01-09T02:57:39.506Z,97664.65
2019-01-09T03:00:13.233Z,97666.11
2019-01-09T03:02:44.267Z,97661.02
2019-01-09T03:05:15.267Z,97660.64
2019-01-09T03:07:45.932Z,97652.70
2019-01-09T03:10:16.580Z,97651.02
2019-01-09T03:12:47.100Z,97650.06
2019-01-09T03:15:17.689Z,97652.01
2019-01-09T03:17:48.173Z,97649.66
2019-01-09T03:20:18.849Z,97646.72
2019-01-09T03:22:49.378Z,97652.01
2019-01-09T03:25:19.874Z,97654.46
2019-01-09T03:27:50.528Z,97649.36
2019-01-09T03:30:21.152Z,97654.75
2019-01-09T03:32:51.740Z,97652.20
2019-01-09T03:35:22.303Z,97654.46
2019-01-09T03:37:52.911Z,97653.86
2019-01-09T03:40:23.838Z,97650.33
2019-01-09T03:42:54.568Z,97654.66
2019-01-09T03:45:25.178Z,97653.77
2019-01-09T03:47:55.702Z,97653.16
2019-01-09T03:50:26.299Z,97654.23
2019-01-09T03:52:56.656Z,97655.52
2019-01-09T03:55:27.161Z,97660.70
2019-01-09T03:57:57.780Z,97656.02
2019-01-09T04:00:28.298Z,97656.78
2019-01-09T04:02:58.804Z,97655.89
2019-01-09T04:05:29.421Z,97655.80
2019-01-09T04:08:00.012Z,97660.03
2019-01-09T04:10:30.754Z,97664.33
2019-01-09T04:13:01.350Z,97662.67
2019-01-09T04:15:31.879Z,97660.89
2019-01-09T04:18:02.349Z,97666.40
2019-01-09T04:20:32.863Z,97663.44
2019-01-09T04:23:03.442Z,97661.40
2019-01-09T04:25:34.021Z,97663.53
2019-01-09T04:28:04.721Z,97664.94
2019-01-09T04:30:35.939Z,97663.25
2019-01-09T04:33:06.520Z,97659.66
2019-01-09T04:35:37.075Z,97658.25
2019-01-09T04:38:07.738Z,97657.77
2019-01-09T04:40:38.271Z,97661.30
2019-01-09T04:43:08.879Z,97662.07
2019-01-09T04:45:39.529Z,97665.41
2019-01-09T04:48:10.117Z,97659.52
2019-01-09T04:50:40.784Z,97663.47
2019-01-09T04:53:11.327Z,97667.48
2019-01-09T04:55:42.020Z,97666.69
2019-01-09T04:58:12.997Z,97666.20
2019-01-09T05:00:43.668Z,97666.97
2019-01-09T05:03:14.152Z,97666.88
2019-01-09T05:05:45.035Z,97660.89
2019-01-09T05:08:15.608Z,97665.89
2019-01-09T05:10:46.244Z,97658.95
2019-01-09T05:13:16.778Z,97668.24
2019-01-09T05:15:47.498Z,97666.08
2019-01-09T05:18:18.035Z,97661.78
2019-01-09T05:20:48.724Z,97662.67
2019-01-09T05:23:19.568Z,97663.72
2019-01-09T05:25:50.347Z,97663.63
2019-01-09T05:28:21.113Z,97657.62
2019-01-09T05:30:51.790Z,97666.36
2019-01-09T05:33:22.459Z,97664.28
2019-01-09T05:35:53.056Z,97664.89
2019-01-09T05:38:23.659Z,97670.55
2019-01-09T05:40:54.139Z,97674.79
2019-01-09T05:43:24.780Z,97681.63
2019-01-09T05:45:55.382Z,97682.09
2019-01-09T05:48:25.877Z,97681.81
2019-01-09T05:50:56.562Z,97684.74
2019-01-09T05:53:27.230Z,97684.92
2019-01-09T05:55:57.847Z,97691.61
2019-01-09T05:58:28.649Z,97692.98
2019-01-09T06:00:59.264Z,97694.91
2019-01-09T06:03:29.811Z,97696.28
2019-01-09T06:06:00.429Z,97696.98
2019-01-09T06:08:31.427Z,97703.24
2019-01-09T06:11:02.152Z,97702.35
2019-01-09T06:13:32.874Z,97698.44
2019-01-09T06:16:03.579Z,97706.17
2019-01-09T06:18:34.214Z,97706.97
2019-01-09T06:21:05.278Z,97711.27
2019-01-09T06:23:36.066Z,97710.88
2019-01-09T06:26:06.844Z,97713.52
2019-01-09T06:28:37.616Z,97711.45
2019-01-09T06:31:08.302Z,97715.17
2019-01-09T06:33:38.946Z,97716.96
2019-01-09T06:36:09.617Z,97719.69
2019-01-09T06:38:40.372Z,97726.15
2019-01-09T06:41:11.112Z,97719.89
2019-01-09T06:43:41.830Z,97722.23
2019-01-09T06:46:12.605Z,97724.78
2019-01-09T06:48:43.470Z,97729.73
2019-01-09T06:51:14.418Z,97730.73
2019-01-09T06:53:45.251Z,97736.71
2019-01-09T06:56:15.814Z,97742.46
2019-01-09T06:58:46.618Z,97747.45
2019-01-09T07:01:17.385Z,97748.73
2019-01-09T07:03:47.997Z,97749.72
2019-01-09T07:06:18.970Z,97748.83
2019-01-09T07:08:49.669Z,97757.53
2019-01-09T07:11:20.448Z,97758.70
2019-01-09T07:13:51.099Z,97762.42
2019-01-09T07:16:21.764Z,97762.33
2019-01-09T07:18:52.439Z,97767.13
2019-01-09T07:21:23.064Z,97771.71
2019-01-09T07:23:53.753Z,97772.09
2019-01-09T07:26:24.468Z,97773.59
2019-01-09T07:28:55.232Z,97771.53
2019-01-09T07:31:25.951Z,97775.35
2019-01-09T07:33:56.636Z,97775.63
2019-01-09T07:36:27.590Z,97778.51
2019-01-09T07:38:58.282Z,97775.97
2019-01-09T07:41:28.929Z,97784.28
2019-01-09T07:43:59.738Z,97785.08
2019-01-09T07:46:30.466Z,97787.44
2019-01-09T07:49:01.523Z,97788.91
2019-01-09T07:51:32.321Z,97791.08
2019-01-09T07:54:02.984Z,97792.08
2019-01-09T07:56:33.787Z,97797.92
2019-01-09T07:59:04.763Z,97801.16
2019-01-09T08:01:35.580Z,97794.90
2019-01-09T08:04:06.259Z,97803.30
2019-01-09T08:06:36.948Z,97803.09
2019-01-09T08:09:08.854Z,97809.66
2019-01-09T08:11:39.789Z,97807.11
2019-01-09T08:14:10.478Z,97816.44
2019-01-09T08:16:41.175Z,97816.02
2019-01-09T08:19:11.764Z,97814.75
2019-01-09T08:21:42.369Z,97828.75
2019-01-09T08:24:13.080Z,97823.17
2019-01-09T08:26:43.799Z,97831.53
2019-01-09T08:29:14.503Z,97829.74
2019-01-09T08:31:45.199Z,97825.45
2019-01-09T08:34:15.807Z,97837.80
2019-01-09T08:36:46.523Z,97833.08
2019-01-09T08:39:17.208Z,97833.56
2019-01-09T08:41:47.926Z,97835.83
2019-01-09T08:44:18.603Z,97830.46
2019-01-09T08:46:49.481Z,97840.92
2019-01-09T08:49:21.023Z,97839.85
2019-01-09T08:51:51.728Z,97847.66
2019-01-09T08:54:22.388Z,97843.47
2019-01-09T08:56:52.973Z,97850.83
2019-01-09T08:59:23.603Z,97856.92
2019-01-09T09:01:54.208Z,97861.56
2019-01-09T09:04:24.767Z,97864.83
2019-01-09T09:06:55.603Z,97866.30
2019-01-09T09:09:27.920Z,97865.75
2019-01-09T09:11:58.623Z,97870.84
2019-01-09T09:14:29.283Z,97871.84
2019-01-09T09:16:59.816Z,97873.59
2019-01-09T09:19:30.325Z,97876.23
2019-01-09T09:22:00.987Z,97877.66
2019-01-09T09:24:31.621Z,97877.06
2019-01-09T09:27:02.209Z,97880.42
2019-01-09T09:29:32.851Z,97879.69
2019-01-09T09:32:03.739Z,97892.83
2019-01-09T09:34:34.604Z,97888.80
2019-01-09T09:37:05.248Z,97894.30
2019-01-09T09:39:35.918Z,97898.84
2019-01-09T09:42:06.660Z,97894.17
2019-01-09T09:44:37.328Z,97890.37
2019-01-09T09:47:07.929Z,97890.37
2019-01-09T09:49:38.615Z,97900.66
2019-01-09T09:52:09.373Z,97909.50
2019-01-09T09:54:39.968Z,97905.95
2019-01-09T09:57:10.713Z,97901.38
2019-01-09T09:59:41.235Z,97908.14
2019-01-09T10:02:11.901Z,97908.19
2019-01-09T10:04:42.529Z,97908.87
2019-01-09T10:07:13.006Z,97909.77
2019-01-09T10:09:43.604Z,97904.39
2019-01-09T10:12:14.207Z,97913.13
2019-01-09T10:14:44.816Z,97910.86
2019-01-09T10:17:15.449Z,97918.84
2019-01-09T10:19:46.273Z,97912.86
2019-01-09T10:22:17.401Z,97918.86
2019-01-09T10:24:48.010Z,97913.47
2019-01-09T10:27:18.562Z,97915.23
2019-01-09T10:29:49.249Z,97922.59
2019-01-09T10:32:19.952Z,97922.02
2019-01-09T10:34:50.588Z,97922.31
2019-01-09T10:37:21.366Z,97921.64
2019-01-09T10:39:51.968Z,97922.64
2019-01-09T10:42:22.579Z,97926.84
2019-01-09T10:44:53.191Z,97927.03
2019-01-09T10:47:23.903Z,97930.38
2019-01-09T10:49:54.551Z,97928.70
2019-01-09T10:52:25.232Z,97929.30
2019-01-09T10:54:55.830Z,97930.77
2019-01-09T10:57:26.596Z,97935.59
2019-01-09T10:59:57.224Z,97938.33
2019-01-09T11:02:28.140Z,97935.97
2019-01-09T11:04:58.987Z,97937.05
2019-01-09T11:07:29.538Z,97943.44
2019-01-09T11:10:00.271Z,97944.66
2019-01-09T11:12:30.796Z,97939.55
2019-01-09T11:15:01.439Z,97943.15
2019-01-09T11:17:32.113Z,97943.44
2019-01-09T11:20:02.811Z,97948.34
2019-01-09T11:22:33.434Z,97949.09
2019-01-09T11:25:04.220Z,97948.42
2019-01-09T11:27:34.998Z,97949.38
2019-01-09T11:30:08.079Z,97949.99
2019-01-09T11:32:38.827Z,97946.97
2019-01-09T11:35:11.117Z,97949.42
2019-01-09T11:37:41.811Z,97942.81
2019-01-09T11:40:14.378Z,97944.70
2019-01-09T11:42:45.310Z,97945.18
2019-01-09T11:45:17.843Z,97946.62
2019-01-09T11:47:49.288Z,97940.27
2019-01-09T11:50:20.004Z,97933.60
2019-01-09T11:52:50.651Z,97944.80
2019-01-09T11:55:21.303Z,97950.19
2019-01-09T11:57:51.932Z,97951.36
2019-01-09T12:00:29.527Z,97953.72
2019-01-09T12:03:00.289Z,97955.10
2019-01-09T12:05:31.002Z,97958.55
2019-01-09T12:08:01.651Z,97965.45
2019-01-09T12:10:32.174Z,97961.23
2019-01-09T12:13:02.740Z,97964.49
2019-01-09T12:15:33.506Z,97969.31
2019-01-09T12:18:03.994Z,97966.16
2019-01-09T12:20:34.602Z,97968.89
2019-01-09T12:23:05.428Z,97963.21
2019-01-09T12:25:36.347Z,97974.51
2019-01-09T12:28:07.180Z,97974.60
2019-01-09T12:30:37.858Z,97979.83
2019-01-09T12:33:08.338Z,97986.59
2019-01-09T12:35:39.037Z,97986.97
2019-01-09T12:38:09.718Z,97986.59
2019-01-09T12:40:40.530Z,97991.81
2019-01-09T12:43:11.140Z,97999.08
2019-01-09T12:45:42.137Z,97999.55
2019-01-09T12:48:12.853Z,98004.56
2019-01-09T12:50:43.484Z,98011.91
2019-01-09T12:53:14.263Z,98013.60
2019-01-09T12:55:45.388Z,98017.72
2019-01-09T12:58:16.367Z,98025.89
2019-01-09T13:00:47.128Z,98026.75
2019-01-09T13:03:17.862Z,98033.04
2019-01-09T13:05:48.722Z,98030.34
2019-01-09T13:08:19.541Z,98040.77
2019-01-09T13:10:50.331Z,98042.84
2019-01-09T13:13:21.037Z,98045.64
2019-01-09T13:15:51.811Z,98052.43
2019-01-09T13:18:22.893Z,98059.67
2019-01-09T13:20:53.700Z,98057.48
2019-01-09T13:23:24.318Z,98054.33
2019-01-09T13:25:54.922Z,98056.20
2019-01-09T13:28:25.642Z,98061.38
2019-01-09T13:30:56.275Z,98063.26
2019-01-09T13:33:26.945Z,98060.25
2019-01-09T13:35:57.925Z,98075.79
2019-01-09T13:38:29.253Z,98075.38
2019-01-09T13:41:00.019Z,98082.47
2019-01-09T13:43:30.669Z,98082.64
2019-01-09T13:46:01.865Z,98086.77
2019-01-09T13:48:32.551Z,98085.09
2019-01-09T13:51:03.334Z,98092.59
2019-01-09T13:53:34.054Z,98091.39
2019-01-09T13:56:05.074Z,98097.64
2019-01-09T13:58:35.812Z,98093.46
2019-01-09T14:01:07.022Z,98108.25
2019-01-09T14:03:38.569Z,98106.61
2019-01-09T14:06:09.678Z,98111.16
2019-01-09T14:08:40.408Z,98112.47
2019-01-09T14:11:11.154Z,98116.56
2019-01-09T14:13:42.199Z,98113.56
2019-01-09T14:16:13.160Z,98121.31
2019-01-09T14:18:43.862Z,98118.91
2019-01-09T14:21:14.550Z,98124.41
2019-01-09T14:23:45.436Z,98131.68
2019-01-09T14:26:16.235Z,98135.84
2019-01-09T14:28:47.224Z,98136.88
2019-01-09T14:31:17.866Z,98140.68
2019-01-09T14:33:48.478Z,98149.91
2019-01-09T14:36:19.195Z,98150.22
2019-01-09T14:38:49.750Z,98159.80
2019-01-09T14:41:20.581Z,98165.42
2019-01-09T14:43:51.350Z,98166.07
2019-01-09T14:46:22.313Z,98169.10
2019-01-09T14:48:52.952Z,98170.96
2019-01-09T14:51:23.962Z,98172.05
2019-01-09T14:53:54.634Z,98181.72
2019-01-09T14:56:25.188Z,98186.41
2019-01-09T14:58:55.858Z,98188.36
2019-01-09T15:01:26.685Z,98190.45
2019-01-09T15:03:57.578Z,98198.88
2019-01-09T15:06:28.302Z,98203.98
2019-01-09T15:08:58.908Z,98214.97
2019-01-09T15:11:31.462Z,98212.17
2019-01-09T15:14:02.170Z,98218.80
2019-01-09T15:16:32.824Z,98222.52
2019-01-09T15:19:03.542Z,98220.66
2019-01-09T15:21:34.243Z,98228.56
2019-01-09T15:24:08.526Z,98230.22
2019-01-09T15:26:37.527Z,98233.93
2019-01-09T15:29:08.295Z,98242.36
2019-01-09T15:31:38.950Z,98244.50
2019-01-09T15:34:09.623Z,98245.17
2019-01-09T15:36:40.693Z,98251.28
2019-01-09T15:39:11.340Z,98252.70
2019-01-09T15:41:42.823Z,98259.94
2019-01-09T15:44:13.921Z,98259.45
2019-01-09T15:46:44.612Z,98261.52
2019-01-09T15:49:15.307Z,98269.91
2019-01-09T15:51:45.952Z,98270.96
2019-01-09T15:54:16.748Z,98273.52
2019-01-09T15:56:47.427Z,98279.77
2019-01-09T15:59:18.099Z,98285.88
2019-01-09T16:01:48.886Z,98287.78
2019-01-09T16:04:19.569Z,98297.86
2019-01-09T16:06:50.165Z,98302.44
2019-01-09T16:09:20.950Z,98312.14
2019-01-09T16:11:51.678Z,98315.84
2019-01-09T16:14:22.420Z,98317.39
2019-01-09T16:16:53.097Z,98323.75
2019-01-09T16:19:23.719Z,98328.36
2019-01-09T16:21:54.544Z,98325.29
2019-01-09T16:24:25.243Z,98331.05
2019-01-09T16:26:55.887Z,98330.95
2019-01-09T16:29:26.771Z,98339.45
2019-01-09T16:31:57.344Z,98348.48
2019-01-09T16:34:28.068Z,98350.53
2019-01-09T16:36:58.869Z,98350.53
2019-01-09T16:39:31.296Z,98356.91
2019-01-09T16:42:02.153Z,98363.64
2019-01-09T16:44:33.047Z,98367.50
2019-01-09T16:47:03.759Z,98373.98
2019-01-09T16:49:34.728Z,98383.01
2019-01-09T16:52:06.510Z,98385.70
2019-01-09T16:54:37.258Z,98392.03
2019-01-09T16:57:09.129Z,98393.05
2019-01-09T16:59:40.109Z,98395.11
2019-01-09T17:02:10.930Z,98400.57
2019-01-09T17:04:41.724Z,98401.24
2019-01-09T17:07:12.519Z,98406.08
2019-01-09T17:09:43.288Z,98406.83
2019-01-09T17:12:13.975Z,98406.83
2019-01-09T17:14:44.789Z,98416.52
2019-01-09T17:17:15.522Z,98419.56
2019-01-09T17:19:47.307Z,98425.92
2019-01-09T17:22:18.056Z,98435.62
2019-01-09T17:24:49.186Z,98442.74
2019-01-09T17:27:19.952Z,98446.97
2019-01-09T17:29:50.659Z,98450.38
2019-01-09T17:32:21.848Z,98458.02
2019-01-09T17:34:52.668Z,98465.55
2019-01-09T17:37:24.242Z,98471.02
2019-01-09T17:39:56.308Z,98472.28
2019-01-09T17:42:27.058Z,98477.37
2019-01-09T17:44:58.058Z,98481.20
2019-01-09T17:47:28.993Z,98487.83
2019-01-09T17:49:59.618Z,98493.94
2019-01-09T17:52:30.318Z,98497.23
2019-01-09T17:55:01.056Z,98504.63
2019-01-09T17:57:31.688Z,98505.89
2019-01-09T18:00:02.509Z,98507.17
2019-01-09T18:02:35.578Z,98510.62
2019-01-09T18:05:07.384Z,98524.22
2019-01-09T18:07:38.146Z,98523.84
2019-01-09T18:10:14.946Z,98538.49
2019-01-09T18:12:46.227Z,98537.59
2019-01-09T18:15:20.850Z,98541.04
2019-01-09T18:17:51.893Z,98549.95
2019-01-09T18:20:22.854Z,98553.25
2019-01-09T18:22:53.739Z,98559.24
2019-01-09T18:25:27.139Z,98558.46
2019-01-09T18:27:59.232Z,98571.33
2019-01-09T18:30:42.422Z,98573.12
2019-01-09T18:33:29.743Z,98572.59
2019-01-09T18:36:25.550Z,98579.48
2019-01-09T18:39:39.944Z,98586.34
2019-01-09T18:43:02.725Z,98591.20
2019-01-09T18:46:25.156Z,98592.48
2019-01-09T18:49:24.210Z,98598.72
2019-01-09T18:52:33.157Z,98606.25
2019-01-09T18:55:08.210Z,98614.63
2019-01-09T18:57:39.028Z,98626.75
2019-01-09T19:00:21.799Z,98627.38
2019-01-09T19:02:58.376Z,98633.39
2019-01-09T19:05:31.349Z,98641.66
2019-01-09T19:08:05.542Z,98646.50
2019-01-09T19:10:38.621Z,98650.95
2019-01-09T19:13:10.332Z,98648.81
2019-01-09T19:15:41.192Z,98662.54
2019-01-09T19:18:13.070Z,98658.36
2019-01-09T19:20:46.415Z,98661.03
2019-01-09T19:23:18.337Z,98666.37
2019-01-09T19:25:50.519Z,98676.67
2019-01-09T19:28:28.952Z,98674.37
2019-01-09T19:31:02.159Z,98680.13
2019-01-09T19:33:33.263Z,98690.42
2019-01-09T19:36:08.472Z,98697.16
2019-01-09T19:38:42.889Z,98697.45
2019-01-09T19:41:19.168Z,98702.78
2019-01-09T19:43:50.178Z,98703.41
2019-01-09T19:46:22.249Z,98707.22
2019-01-09T19:48:58.408Z,98709.15
2019-01-09T19:51:32.599Z,98714.23
2019-01-09T19:54:03.545Z,98724.91
2019-01-09T19:56:36.337Z,98735.20
2019-01-09T19:59:09.532Z,98733.52
2019-01-09T20:01:43.501Z,98741.31
2019-01-09T20:04:17.312Z,98735.94
2019-01-09T20:06:49.164Z,98744.09
2019-01-09T20:09:22.247Z,98747.75
2019-01-09T20:11:56.048Z,98747.73
2019-01-09T20:14:31.683Z,98752.44
2019-01-09T20:17:08.868Z,98750.51
2019-01-09T20:19:43.443Z,98753.83
2019-01-09T20:22:19.048Z,98758.14
2019-01-09T20:24:50.173Z,98761.83
2019-01-09T20:27:24.990Z,98763.88
2019-01-09T20:29:58.221Z,98773.27
2019-01-09T20:32:30.347Z,98773.69
2019-01-09T20:35:01.613Z,98768.97
2019-01-09T20:37:32.828Z,98780.27
2019-01-09T20:40:04.433Z,98775.45
2019-01-09T20:42:37.851Z,98781.16
2019-01-09T20:45:11.550Z,98788.05
2019-01-09T20:47:44.821Z,98787.28
2019-01-09T20:50:23.132Z,98799.13
2019-01-09T20:52:55.139Z,98799.13
2019-01-09T20:55:28.114Z,98801.80
2019-01-09T20:58:01.218Z,98800.40
2019-01-09T21:00:35.478Z,98807.50
2019-01-09T21:03:11.529Z,98816.83
2019-01-09T21:05:48.514Z,98824.83
2019-01-09T21:08:21.758Z,98833.63
2019-01-09T21:10:53.758Z,98840.00
2019-01-09T21:13:24.583Z,98850.08
2019-01-09T21:16:01.399Z,98850.58
2019-01-09T21:18:35.803Z,98850.34
2019-01-09T21:21:08.324Z,98859.80
2019-01-09T21:23:38.955Z,98871.25
2019-01-09T21:26:09.708Z,98871.39
2019-01-09T21:28:41.938Z,98873.03
2019-01-09T21:31:12.766Z,98876.38
2019-01-09T21:33:43.751Z,98879.16
2019-01-09T21:36:15.471Z,98872.80
2019-01-09T21:38:46.103Z,98876.00
2019-01-09T21:41:16.598Z,98880.19
2019-01-09T21:43:48.652Z,98887.70
2019-01-09T21:46:19.228Z,98884.66
2019-01-09T21:48:49.921Z,98896.48
2019-01-09T21:51:20.454Z,98893.40
2019-01-09T21:53:51.088Z,98897.49
2019-01-09T21:56:21.828Z,98899.00
2019-01-09T21:58:52.463Z,98901.44
2019-01-09T22:01:23.136Z,98904.35
2019-01-09T22:03:53.761Z,98911.37
2019-01-09T22:06:24.389Z,98913.16
2019-01-09T22:08:55.058Z,98919.52
2019-01-09T22:11:25.729Z,98924.73
2019-01-09T22:13:56.356Z,98924.99
2019-01-09T22:16:27.093Z,98923.22
2019-01-09T22:18:57.730Z,98929.95
2019-01-09T22:21:28.603Z,98937.36
2019-01-09T22:23:59.309Z,98937.74
2019-01-09T22:26:30.052Z,98943.98
2019-01-09T22:29:00.832Z,98944.75
2019-01-09T22:31:31.371Z,98943.37
2019-01-09T22:34:01.872Z,98956.84
2019-01-09T22:36:32.613Z,98963.97
2019-01-09T22:39:03.377Z,98957.61
2019-01-09T22:41:34.070Z,98973.66
2019-01-09T22:44:05.551Z,98969.55
2019-01-09T22:46:36.433Z,98974.61
2019-01-09T22:49:07.413Z,98983.50
2019-01-09T22:51:38.399Z,98981.94
2019-01-09T22:54:09.007Z,98979.09
2019-01-09T22:56:39.515Z,98982.59
2019-01-09T22:59:10.128Z,98984.46
2019-01-09T23:01:41.043Z,98982.55
2019-01-09T23:04:11.912Z,98989.55
2019-01-09T23:06:42.835Z,98996.41
2019-01-09T23:09:13.717Z,98995.64
2019-01-09T23:11:44.548Z,99003.14
2019-01-09T23:14:15.451Z,99007.19
2019-01-09T23:16:46.215Z,99007.19
2019-01-09T23:19:17.079Z,99012.75
2019-01-09T23:21:47.769Z,99025.43
2019-01-09T23:24:18.460Z,99018.94
2019-01-09T23:26:49.229Z,99018.30
2019-01-09T23:29:20.275Z,99026.97
2019-01-09T23:31:50.833Z,99028.47
2019-01-09T23:34:21.492Z,99026.56
2019-01-09T23:36:52.285Z,99031.34
2019-01-09T23:39:23.129Z,99036.43
2019-01-09T23:41:53.868Z,99038.34
2019-01-09T23:44:24.443Z,99035.16
2019-01-09T23:46:55.057Z,99040.52
2019-01-09T23:49:25.663Z,99043.92
2019-01-09T23:51:56.271Z,99043.39
2019-01-09T23:54:26.843Z,99042.34
2019-01-09T23:56:57.389Z,99043.48
2019-01-09T23:59:28.083Z,99048.70
